createdAt,value
2018-07-13T00:01:33.587Z,102044.82
2018-07-13T00:04:02.494Z,102042.35
2018-07-13T00:06:31.324Z,102043.09
2018-07-13T00:09:00.255Z,102041.34
2018-07-13T00:11:29.067Z,102039.63
2018-07-13T00:14:15.452Z,102038.05
2018-07-13T00:16:45.128Z,102032.70
2018-07-13T00:19:14.778Z,102031.00
2018-07-13T00:21:43.650Z,102031.58
2018-07-13T00:24:12.592Z,102036.05
2018-07-13T00:26:41.504Z,102035.77
2018-07-13T00:29:10.761Z,102035.92
2018-07-13T00:31:40.728Z,102039.97
2018-07-13T00:34:09.580Z,102041.72
2018-07-13T00:36:38.498Z,102045.16
2018-07-13T00:39:11.414Z,102043.61
2018-07-13T00:41:40.336Z,102038.64
2018-07-13T00:44:09.285Z,102042.81
2018-07-13T00:46:38.135Z,102043.83
2018-07-13T00:49:06.966Z,102045.65
2018-07-13T00:51:35.865Z,102051.39
2018-07-13T00:54:04.801Z,102043.61
2018-07-13T00:56:33.693Z,102042.30
2018-07-13T00:59:02.594Z,102041.98
2018-07-13T01:01:31.419Z,102039.73
2018-07-13T01:04:00.235Z,102043.67
2018-07-13T01:06:29.023Z,102045.83
2018-07-13T01:08:57.661Z,102042.84
2018-07-13T01:11:26.520Z,102033.09
2018-07-13T01:13:55.314Z,102035.18
2018-07-13T01:16:24.455Z,102036.99
2018-07-13T01:18:53.355Z,102038.03
2018-07-13T01:21:22.187Z,102035.55
2018-07-13T01:23:50.813Z,102035.48
2018-07-13T01:26:19.653Z,102034.69
2018-07-13T01:28:48.273Z,102038.45
2018-07-13T01:31:17.043Z,102032.95
2018-07-13T01:33:45.802Z,102041.20
2018-07-13T01:36:14.560Z,102030.39
2018-07-13T01:38:43.435Z,102035.62
2018-07-13T01:41:12.472Z,102035.69
2018-07-13T01:43:41.382Z,102032.50
2018-07-13T01:46:10.004Z,102031.17
2018-07-13T01:48:38.860Z,102034.48
2018-07-13T01:51:07.530Z,102034.51
2018-07-13T01:53:36.382Z,102031.49
2018-07-13T01:56:05.363Z,102036.05
2018-07-13T01:58:34.214Z,102032.50
2018-07-13T02:01:04.127Z,102036.50
2018-07-13T02:03:56.240Z,102036.63
2018-07-13T02:06:25.089Z,102037.88
2018-07-13T02:08:53.921Z,102038.32
2018-07-13T02:11:22.702Z,102042.63
2018-07-13T02:13:51.990Z,102043.17
2018-07-13T02:16:20.816Z,102041.70
2018-07-13T02:18:49.728Z,102034.98
2018-07-13T02:21:18.921Z,102034.48
2018-07-13T02:23:47.765Z,102034.98
2018-07-13T02:26:16.566Z,102034.13
2018-07-13T02:28:45.388Z,102022.56
2018-07-13T02:31:14.255Z,102026.87
2018-07-13T02:33:43.130Z,102031.98
2018-07-13T02:36:11.889Z,102029.39
2018-07-13T02:38:41.011Z,102033.15
2018-07-13T02:41:09.860Z,102031.49
2018-07-13T02:43:38.691Z,102034.17
2018-07-13T02:46:07.561Z,102035.77
2018-07-13T02:48:36.174Z,102040.69
2018-07-13T02:51:05.132Z,102036.70
2018-07-13T02:53:33.838Z,102043.09
2018-07-13T02:56:02.731Z,102048.80
2018-07-13T02:58:31.534Z,102043.20
2018-07-13T03:01:00.424Z,102047.59
2018-07-13T03:03:29.251Z,102050.47
2018-07-13T03:05:58.116Z,102059.03
2018-07-13T03:08:26.983Z,102054.61
2018-07-13T03:10:55.813Z,102054.71
2018-07-13T03:13:24.843Z,102060.11
2018-07-13T03:15:53.499Z,102063.17
2018-07-13T03:18:22.287Z,102062.30
2018-07-13T03:20:51.183Z,102061.49
2018-07-13T03:23:19.973Z,102074.13
2018-07-13T03:25:48.847Z,102061.74
2018-07-13T03:28:17.657Z,102058.59
2018-07-13T03:30:46.504Z,102061.54
2018-07-13T03:33:15.352Z,102062.02
2018-07-13T03:35:44.147Z,102057.16
2018-07-13T03:38:12.975Z,102060.86
2018-07-13T03:40:41.805Z,102067.25
2018-07-13T03:43:10.648Z,102079.64
2018-07-13T03:45:45.628Z,102076.23
2018-07-13T03:48:14.483Z,102080.84
2018-07-13T03:50:43.275Z,102077.10
2018-07-13T03:53:12.232Z,102072.52
2018-07-13T03:55:41.108Z,102075.08
2018-07-13T03:58:10.024Z,102075.75
2018-07-13T04:00:38.733Z,102080.00
2018-07-13T04:03:07.426Z,102072.17
2018-07-13T04:05:36.242Z,102073.71
2018-07-13T04:08:05.129Z,102074.86
2018-07-13T04:10:33.939Z,102074.55
2018-07-13T04:13:02.809Z,102072.39
2018-07-13T04:15:31.691Z,102070.64
2018-07-13T04:18:00.584Z,102071.44
2018-07-13T04:20:29.555Z,102069.64
2018-07-13T04:22:58.354Z,102059.63
2018-07-13T04:25:27.352Z,102064.13
2018-07-13T04:27:56.398Z,102070.41
2018-07-13T04:30:25.348Z,102073.71
2018-07-13T04:32:54.251Z,102063.24
2018-07-13T04:35:23.057Z,102073.27
2018-07-13T04:37:51.963Z,102073.97
2018-07-13T04:40:20.821Z,102072.53
2018-07-13T04:42:49.637Z,102067.32
2018-07-13T04:45:24.964Z,102076.73
2018-07-13T04:47:53.975Z,102072.06
2018-07-13T04:50:22.928Z,102071.59
2018-07-13T04:52:52.392Z,102077.61
2018-07-13T04:55:21.572Z,102077.16
2018-07-13T04:57:50.597Z,102078.84
2018-07-13T05:00:19.726Z,102084.34
2018-07-13T05:02:48.991Z,102085.45
2018-07-13T05:05:18.037Z,102083.19
2018-07-13T05:07:46.856Z,102085.32
2018-07-13T05:10:15.875Z,102086.00
2018-07-13T05:12:44.703Z,102089.78
2018-07-13T05:15:13.703Z,102089.66
2018-07-13T05:17:42.599Z,102093.34
2018-07-13T05:20:11.578Z,102089.65
2018-07-13T05:22:40.567Z,102088.28
2018-07-13T05:25:09.619Z,102089.20
2018-07-13T05:27:38.771Z,102086.36
2018-07-13T05:30:08.158Z,102090.02
2018-07-13T05:32:37.248Z,102094.44
2018-07-13T05:35:06.015Z,102099.95
2018-07-13T05:37:34.979Z,102095.11
2018-07-13T05:40:04.605Z,102097.95
2018-07-13T05:42:33.836Z,102102.72
2018-07-13T05:45:02.980Z,102104.14
2018-07-13T05:47:32.028Z,102103.66
2018-07-13T05:50:01.088Z,102104.21
2018-07-13T05:52:30.141Z,102108.34
2018-07-13T05:54:59.568Z,102110.02
2018-07-13T05:57:28.653Z,102108.95
2018-07-13T05:59:57.650Z,102105.02
2018-07-13T06:02:26.664Z,102116.58
2018-07-13T06:04:55.697Z,102111.48
2018-07-13T06:07:24.846Z,102118.97
2018-07-13T06:09:53.857Z,102120.91
2018-07-13T06:12:22.891Z,102120.91
2018-07-13T06:14:51.712Z,102122.29
2018-07-13T06:17:20.540Z,102127.98
2018-07-13T06:19:49.395Z,102132.66
2018-07-13T06:22:18.291Z,102128.44
2018-07-13T06:24:47.084Z,102140.65
2018-07-13T06:27:15.892Z,102143.98
2018-07-13T06:29:44.784Z,102146.91
2018-07-13T06:32:13.602Z,102146.28
2018-07-13T06:34:42.553Z,102149.14
2018-07-13T06:37:11.587Z,102145.18
2018-07-13T06:39:40.643Z,102143.63
2018-07-13T06:42:09.566Z,102141.05
2018-07-13T06:44:38.646Z,102141.22
2018-07-13T06:47:07.374Z,102148.20
2018-07-13T06:49:36.260Z,102148.78
2018-07-13T06:52:05.573Z,102149.87
2018-07-13T06:54:34.516Z,102146.56
2018-07-13T06:57:03.365Z,102150.81
2018-07-13T06:59:32.296Z,102150.16
2018-07-13T07:02:01.493Z,102164.11
2018-07-13T07:04:32.520Z,102155.76
2018-07-13T07:07:08.491Z,102158.14
2018-07-13T07:09:38.199Z,102157.71
2018-07-13T07:12:49.672Z,102159.24
2018-07-13T07:15:18.526Z,102160.13
2018-07-13T07:17:47.645Z,102159.79
2018-07-13T07:20:16.776Z,102158.49
2018-07-13T07:22:46.145Z,102160.67
2018-07-13T07:25:15.127Z,102151.77
2018-07-13T07:27:44.465Z,102160.34
2018-07-13T07:30:13.770Z,102159.64
2018-07-13T07:32:43.331Z,102154.81
2018-07-13T07:35:12.159Z,102156.20
2018-07-13T07:37:41.220Z,102153.72
2018-07-13T07:40:10.447Z,102154.96
2018-07-13T07:42:39.219Z,102156.33
2018-07-13T07:45:08.221Z,102158.03
2018-07-13T07:47:37.123Z,102167.83
2018-07-13T07:50:05.976Z,102165.30
2018-07-13T07:52:34.812Z,102167.06
2018-07-13T07:55:03.595Z,102156.74
2018-07-13T07:57:32.620Z,102168.17
2018-07-13T08:00:01.475Z,102163.56
2018-07-13T08:02:30.307Z,102166.89
2018-07-13T08:04:59.100Z,102170.47
2018-07-13T08:07:27.989Z,102169.41
2018-07-13T08:09:56.772Z,102164.75
2018-07-13T08:12:25.622Z,102170.38
2018-07-13T08:14:54.493Z,102169.28
2018-07-13T08:17:23.680Z,102166.20
2018-07-13T08:19:52.631Z,102170.09
2018-07-13T08:22:34.351Z,102173.29
2018-07-13T08:25:06.501Z,102176.63
2018-07-13T08:27:39.456Z,102183.27
2018-07-13T08:30:50.477Z,102179.53
2018-07-13T08:33:19.394Z,102182.10
2018-07-13T08:35:48.180Z,102180.19
2018-07-13T08:38:17.004Z,102178.63
2018-07-13T08:40:45.968Z,102183.86
2018-07-13T08:43:14.896Z,102185.96
2018-07-13T08:45:49.889Z,102186.95
2018-07-13T08:48:18.814Z,102179.16
2018-07-13T08:50:47.824Z,102192.01
2018-07-13T08:53:17.016Z,102189.05
2018-07-13T08:55:46.114Z,102192.65
2018-07-13T08:58:16.833Z,102186.74
2018-07-13T09:00:45.823Z,102190.22
2018-07-13T09:03:14.696Z,102188.34
2018-07-13T09:05:43.712Z,102189.42
2018-07-13T09:08:12.596Z,102191.02
2018-07-13T09:10:41.614Z,102182.21
2018-07-13T09:13:10.468Z,102184.29
2018-07-13T09:15:39.371Z,102186.24
2018-07-13T09:18:08.251Z,102187.78
2018-07-13T09:20:37.249Z,102195.09
2018-07-13T09:23:06.201Z,102204.47
2018-07-13T09:25:34.918Z,102197.84
2018-07-13T09:28:03.731Z,102199.57
2018-07-13T09:30:32.659Z,102196.30
2018-07-13T09:33:01.666Z,102195.48
2018-07-13T09:35:30.572Z,102199.20
2018-07-13T09:37:59.467Z,102199.30
2018-07-13T09:40:28.428Z,102193.05
2018-07-13T09:42:59.015Z,102194.88
2018-07-13T09:45:33.935Z,102195.21
2018-07-13T09:48:03.126Z,102196.97
2018-07-13T09:50:32.375Z,102191.38
2018-07-13T09:53:01.324Z,102199.41
2018-07-13T09:55:30.398Z,102199.58
2018-07-13T09:57:59.064Z,102206.83
2018-07-13T10:00:33.628Z,102207.47
2018-07-13T10:03:02.516Z,102205.52
2018-07-13T10:05:31.433Z,102200.73
2018-07-13T10:08:00.413Z,102205.46
2018-07-13T10:10:29.611Z,102204.16
2018-07-13T10:12:58.510Z,102209.84
2018-07-13T10:15:27.348Z,102206.27
2018-07-13T10:17:56.268Z,102204.08
2018-07-13T10:20:25.061Z,102205.92
2018-07-13T10:22:54.115Z,102210.88
2018-07-13T10:25:26.417Z,102208.52
2018-07-13T10:27:55.643Z,102208.81
2018-07-13T10:30:24.471Z,102212.92
2018-07-13T10:32:53.493Z,102205.44
2018-07-13T10:35:22.490Z,102211.24
2018-07-13T10:37:51.716Z,102211.79
2018-07-13T10:40:20.593Z,102206.19
2018-07-13T10:42:49.500Z,102209.79
2018-07-13T10:45:18.304Z,102205.56
2018-07-13T10:47:47.201Z,102207.33
2018-07-13T10:50:15.956Z,102209.69
2018-07-13T10:52:44.724Z,102205.94
2018-07-13T10:55:13.635Z,102212.09
2018-07-13T10:57:42.419Z,102206.64
2018-07-13T11:00:11.252Z,102210.62
2018-07-13T11:02:40.059Z,102200.88
2018-07-13T11:05:08.935Z,102196.24
2018-07-13T11:07:37.915Z,102195.72
2018-07-13T11:10:06.847Z,102193.45
2018-07-13T11:12:35.629Z,102194.12
2018-07-13T11:15:04.702Z,102193.16
2018-07-13T11:17:33.472Z,102186.28
2018-07-13T11:20:02.374Z,102182.13
2018-07-13T11:22:31.206Z,102192.25
2018-07-13T11:25:00.047Z,102184.30
2018-07-13T11:27:28.861Z,102190.11
2018-07-13T11:29:57.675Z,102188.20
2018-07-13T11:32:26.329Z,102178.63
2018-07-13T11:34:55.161Z,102175.16
2018-07-13T11:37:24.021Z,102191.64
2018-07-13T11:39:52.780Z,102192.83
2018-07-13T11:42:21.502Z,102185.59
2018-07-13T11:44:50.327Z,102185.42
2018-07-13T11:47:19.480Z,102168.47
2018-07-13T11:49:48.272Z,102186.27
2018-07-13T11:52:17.182Z,102184.27
2018-07-13T11:54:45.910Z,102178.58
2018-07-13T11:57:14.821Z,102175.84
2018-07-13T11:59:43.611Z,102182.64
2018-07-13T12:02:12.271Z,102182.97
2018-07-13T12:04:41.046Z,102184.56
2018-07-13T12:07:09.867Z,102176.95
2018-07-13T12:09:38.705Z,102183.53
2018-07-13T12:12:07.827Z,102192.30
2018-07-13T12:14:36.643Z,102187.40
2018-07-13T12:17:05.585Z,102184.20
2018-07-13T12:19:34.367Z,102185.77
2018-07-13T12:22:03.119Z,102189.59
2018-07-13T12:24:31.742Z,102190.20
2018-07-13T12:27:00.622Z,102184.11
2018-07-13T12:29:29.440Z,102192.30
2018-07-13T12:31:58.221Z,102199.37
2018-07-13T12:34:26.933Z,102202.45
2018-07-13T12:36:55.726Z,102190.49
2018-07-13T12:39:24.545Z,102184.27
2018-07-13T12:41:53.158Z,102194.08
2018-07-13T12:44:22.016Z,102193.36
2018-07-13T12:46:50.875Z,102187.92
2018-07-13T12:49:19.709Z,102183.55
2018-07-13T12:51:48.323Z,102189.93
2018-07-13T12:54:17.250Z,102189.33
2018-07-13T12:56:46.029Z,102192.31
2018-07-13T12:59:15.028Z,102192.05
2018-07-13T13:01:43.904Z,102193.36
2018-07-13T13:04:12.744Z,102198.10
2018-07-13T13:06:41.531Z,102200.28
2018-07-13T13:09:10.345Z,102194.12
2018-07-13T13:11:39.203Z,102196.24
2018-07-13T13:14:08.080Z,102185.95
2018-07-13T13:16:36.877Z,102179.20
2018-07-13T13:19:05.773Z,102183.77
2018-07-13T13:21:34.598Z,102194.59
2018-07-13T13:24:03.489Z,102188.52
2018-07-13T13:26:32.299Z,102192.07
2018-07-13T13:29:01.085Z,102190.34
2018-07-13T13:31:30.178Z,102196.45
2018-07-13T13:33:58.968Z,102199.02
2018-07-13T13:36:27.828Z,102202.28
2018-07-13T13:38:56.632Z,102199.30
2018-07-13T13:41:25.277Z,102200.89
2018-07-13T13:43:54.487Z,102202.08
2018-07-13T13:46:23.348Z,102209.20
2018-07-13T13:48:52.040Z,102206.46
2018-07-13T13:51:20.883Z,102204.67
2018-07-13T13:53:49.556Z,102210.02
2018-07-13T13:56:18.397Z,102203.88
2018-07-13T13:58:47.204Z,102207.81
2018-07-13T14:01:15.884Z,102205.07
2018-07-13T14:03:44.643Z,102205.03
2018-07-13T14:06:13.491Z,102208.22
2018-07-13T14:08:42.286Z,102209.02
2018-07-13T14:11:11.095Z,102209.02
2018-07-13T14:13:39.931Z,102197.12
2018-07-13T14:16:08.743Z,102206.44
2018-07-13T14:18:37.518Z,102204.05
2018-07-13T14:21:06.925Z,102199.62
2018-07-13T14:23:35.685Z,102207.01
2018-07-13T14:26:04.847Z,102202.85
2018-07-13T14:28:33.716Z,102208.92
2018-07-13T14:31:02.507Z,102200.88
2018-07-13T14:33:31.391Z,102207.45
2018-07-13T14:36:00.165Z,102210.42
2018-07-13T14:38:29.060Z,102214.35
2018-07-13T14:40:57.864Z,102205.66
2018-07-13T14:43:26.780Z,102204.65
2018-07-13T14:45:57.162Z,102207.45
2018-07-13T14:48:26.005Z,102204.15
2018-07-13T14:50:54.997Z,102214.49
2018-07-13T14:53:23.978Z,102203.59
2018-07-13T14:55:52.852Z,102199.87
2018-07-13T14:58:21.716Z,102208.40
2018-07-13T15:00:50.491Z,102206.77
2018-07-13T15:03:19.407Z,102210.81
2018-07-13T15:05:48.290Z,102199.30
2018-07-13T15:08:17.050Z,102197.00
2018-07-13T15:10:45.728Z,102207.34
2018-07-13T15:13:14.580Z,102198.50
2018-07-13T15:15:43.458Z,102200.44
2018-07-13T15:18:12.321Z,102203.73
2018-07-13T15:20:41.161Z,102212.18
2018-07-13T15:23:10.000Z,102196.70
2018-07-13T15:25:38.899Z,102184.30
2018-07-13T15:28:07.786Z,102199.28
2018-07-13T15:30:36.939Z,102195.38
2018-07-13T15:33:05.785Z,102200.14
2018-07-13T15:35:34.644Z,102197.20
2018-07-13T15:38:03.465Z,102205.12
2018-07-13T15:40:32.371Z,102195.25
2018-07-13T15:43:01.133Z,102191.28
2018-07-13T15:45:36.026Z,102194.28
2018-07-13T15:48:04.836Z,102201.81
2018-07-13T15:50:33.760Z,102209.25
2018-07-13T15:53:02.538Z,102204.06
2018-07-13T15:55:36.862Z,102202.22
2018-07-13T15:58:05.746Z,102206.78
2018-07-13T16:00:34.648Z,102199.28
2018-07-13T16:03:03.461Z,102195.98
2018-07-13T16:05:32.336Z,102198.63
2018-07-13T16:08:01.063Z,102193.89
2018-07-13T16:10:29.931Z,102195.30
2018-07-13T16:12:58.799Z,102198.48
2018-07-13T16:15:28.001Z,102199.57
2018-07-13T16:17:56.621Z,102196.64
2018-07-13T16:20:25.462Z,102196.78
2018-07-13T16:22:54.198Z,102195.70
2018-07-13T16:25:23.168Z,102193.50
2018-07-13T16:27:51.985Z,102201.28
2018-07-13T16:30:20.813Z,102197.52
2018-07-13T16:32:49.653Z,102182.63
2018-07-13T16:35:18.432Z,102190.75
2018-07-13T16:37:47.162Z,102193.33
2018-07-13T16:40:15.980Z,102201.59
2018-07-13T16:42:44.800Z,102188.70
2018-07-13T16:45:13.712Z,102188.41
2018-07-13T16:47:42.454Z,102195.95
2018-07-13T16:50:11.339Z,102198.76
2018-07-13T16:52:40.172Z,102195.53
2018-07-13T16:55:09.053Z,102189.55
2018-07-13T16:57:37.865Z,102198.20
2018-07-13T17:00:06.736Z,102197.96
2018-07-13T17:02:35.649Z,102198.16
2018-07-13T17:05:04.525Z,102200.20
2018-07-13T17:07:33.391Z,102191.62
2018-07-13T17:10:02.303Z,102190.27
2018-07-13T17:12:31.151Z,102194.97
2018-07-13T17:15:00.025Z,102191.38
2018-07-13T17:17:28.928Z,102187.22
2018-07-13T17:19:57.682Z,102195.43
2018-07-13T17:22:26.467Z,102202.06
2018-07-13T17:24:55.293Z,102196.91
2018-07-13T17:27:24.408Z,102188.84
2018-07-13T17:29:53.334Z,102202.77
2018-07-13T17:32:22.090Z,102195.98
2018-07-13T17:34:51.211Z,102199.87
2018-07-13T17:37:20.267Z,102195.14
2018-07-13T17:39:49.138Z,102202.77
2018-07-13T17:42:17.923Z,102201.80
2018-07-13T17:44:46.756Z,102200.20
2018-07-13T17:47:16.344Z,102196.88
2018-07-13T17:49:45.261Z,102193.21
2018-07-13T17:52:16.811Z,102187.47
2018-07-13T17:54:46.027Z,102201.88
2018-07-13T17:57:15.008Z,102189.16
2018-07-13T17:59:43.827Z,102194.62
2018-07-13T18:02:12.635Z,102195.50
2018-07-13T18:04:41.357Z,102188.78
2018-07-13T18:07:10.184Z,102196.46
2018-07-13T18:09:38.826Z,102182.48
2018-07-13T18:12:07.671Z,102187.55
2018-07-13T18:14:37.160Z,102188.17
2018-07-13T18:17:06.092Z,102191.31
2018-07-13T18:19:35.584Z,102190.84
2018-07-13T18:22:04.434Z,102193.05
2018-07-13T18:24:33.212Z,102190.47
2018-07-13T18:27:02.695Z,102188.34
2018-07-13T18:29:31.351Z,102193.82
2018-07-13T18:32:00.537Z,102190.63
2018-07-13T18:34:29.429Z,102207.73
2018-07-13T18:36:59.044Z,102197.86
2018-07-13T18:39:27.677Z,102209.33
2018-07-13T18:41:56.435Z,102202.75
2018-07-13T18:44:25.274Z,102202.02
2018-07-13T18:46:54.035Z,102198.41
2018-07-13T18:49:22.794Z,102207.27
2018-07-13T18:51:51.618Z,102198.36
2018-07-13T18:54:20.334Z,102199.08
2018-07-13T18:56:49.227Z,102197.96
2018-07-13T18:59:17.986Z,102203.84
2018-07-13T19:01:46.812Z,102205.94
2018-07-13T19:04:15.570Z,102200.75
2018-07-13T19:06:44.417Z,102206.31
2018-07-13T19:09:13.470Z,102205.59
2018-07-13T19:11:43.146Z,102210.34
2018-07-13T19:14:11.952Z,102212.98
2018-07-13T19:16:40.952Z,102207.23
2018-07-13T19:19:10.059Z,102211.36
2018-07-13T19:21:39.391Z,102219.94
2018-07-13T19:24:08.143Z,102216.48
2018-07-13T19:26:36.963Z,102212.84
2018-07-13T19:29:06.067Z,102217.11
2018-07-13T19:31:35.008Z,102211.15
2018-07-13T19:34:04.320Z,102216.06
2018-07-13T19:36:33.275Z,102219.70
2018-07-13T19:39:01.922Z,102222.58
2018-07-13T19:41:30.962Z,102218.12
2018-07-13T19:43:59.962Z,102220.33
2018-07-13T19:46:28.790Z,102225.28
2018-07-13T19:48:57.613Z,102222.83
2018-07-13T19:51:26.397Z,102228.89
2018-07-13T19:53:56.392Z,102226.50
2018-07-13T19:56:25.270Z,102233.23
2018-07-13T19:58:54.072Z,102242.67
2018-07-13T20:01:22.866Z,102241.87
2018-07-13T20:03:51.546Z,102238.11
2018-07-13T20:06:20.369Z,102248.26
2018-07-13T20:08:49.265Z,102250.78
2018-07-13T20:11:18.101Z,102246.58
2018-07-13T20:13:47.146Z,102252.30
2018-07-13T20:16:16.113Z,102256.36
2018-07-13T20:18:44.941Z,102251.28
2018-07-13T20:21:13.816Z,102251.08
2018-07-13T20:23:42.719Z,102254.71
2018-07-13T20:26:11.524Z,102255.36
2018-07-13T20:28:40.384Z,102253.84
2018-07-13T20:31:09.168Z,102258.11
2018-07-13T20:33:37.982Z,102256.53
2018-07-13T20:36:06.904Z,102259.35
2018-07-13T20:38:35.676Z,102259.05
2018-07-13T20:41:04.313Z,102258.34
2018-07-13T20:43:33.111Z,102262.11
2018-07-13T20:46:02.011Z,102267.33
2018-07-13T20:48:30.808Z,102269.44
2018-07-13T20:50:59.619Z,102268.64
2018-07-13T20:53:28.247Z,102271.09
2018-07-13T20:55:57.160Z,102274.16
2018-07-13T20:58:26.824Z,102278.59
2018-07-13T21:00:55.637Z,102277.06
2018-07-13T21:03:24.401Z,102278.08
2018-07-13T21:05:53.276Z,102276.84
2018-07-13T21:08:22.073Z,102272.80
2018-07-13T21:10:50.976Z,102270.11
2018-07-13T21:13:19.792Z,102275.62
2018-07-13T21:15:48.669Z,102267.49
2018-07-13T21:18:17.431Z,102271.83
2018-07-13T21:20:46.136Z,102275.17
2018-07-13T21:23:15.000Z,102278.85
2018-07-13T21:25:43.612Z,102273.87
2018-07-13T21:28:12.431Z,102278.59
2018-07-13T21:30:41.213Z,102283.61
2018-07-13T21:33:10.060Z,102276.92
2018-07-13T21:35:38.937Z,102280.63
2018-07-13T21:38:07.776Z,102276.84
2018-07-13T21:40:36.555Z,102278.81
2018-07-13T21:43:05.436Z,102275.39
2018-07-13T21:45:40.588Z,102283.20
2018-07-13T21:48:09.472Z,102283.08
2018-07-13T21:50:38.255Z,102286.84
2018-07-13T21:53:07.002Z,102283.15
2018-07-13T21:55:35.815Z,102277.66
2018-07-13T21:58:04.897Z,102272.20
2018-07-13T22:00:33.732Z,102278.87
2018-07-13T22:03:02.641Z,102277.48
2018-07-13T22:05:31.404Z,102280.47
2018-07-13T22:08:00.279Z,102276.96
2018-07-13T22:10:29.135Z,102273.66
2018-07-13T22:12:58.090Z,102272.36
2018-07-13T22:15:26.928Z,102270.56
2018-07-13T22:17:55.720Z,102271.39
2018-07-13T22:20:24.559Z,102265.42
2018-07-13T22:22:53.338Z,102260.97
2018-07-13T22:25:22.364Z,102268.58
2018-07-13T22:27:51.130Z,102270.23
2018-07-13T22:30:19.967Z,102274.31
2018-07-13T22:32:48.770Z,102274.08
2018-07-13T22:35:17.635Z,102275.69
2018-07-13T22:37:46.311Z,102275.38
2018-07-13T22:40:15.139Z,102273.66
2018-07-13T22:42:43.952Z,102278.67
2018-07-13T22:45:12.651Z,102285.67
2018-07-13T22:47:41.388Z,102278.94
2018-07-13T22:50:10.277Z,102282.58
2018-07-13T22:52:39.065Z,102282.86
2018-07-13T22:55:08.265Z,102280.73
2018-07-13T22:57:37.021Z,102280.55
2018-07-13T23:00:06.496Z,102276.31
2018-07-13T23:02:35.360Z,102274.22
2018-07-13T23:05:04.516Z,102263.92
2018-07-13T23:07:33.279Z,102267.33
2018-07-13T23:10:02.078Z,102267.45
2018-07-13T23:12:30.892Z,102264.88
2018-07-13T23:14:59.764Z,102266.36
2018-07-13T23:17:28.415Z,102271.41
2018-07-13T23:19:57.282Z,102270.75
2018-07-13T23:22:26.080Z,102267.72
2018-07-13T23:24:54.905Z,102264.83
2018-07-13T23:27:23.969Z,102266.28
2018-07-13T23:29:52.767Z,102260.48
2018-07-13T23:32:21.598Z,102257.66
2018-07-13T23:34:50.218Z,102256.95
2018-07-13T23:37:19.069Z,102254.05
2018-07-13T23:39:47.944Z,102252.84
2018-07-13T23:42:16.837Z,102253.63
2018-07-13T23:44:45.625Z,102253.99
2018-07-13T23:47:14.450Z,102256.15
2018-07-13T23:49:43.203Z,102248.90
2018-07-13T23:52:12.133Z,102251.28
2018-07-13T23:54:41.339Z,102243.55
2018-07-13T23:57:10.188Z,102237.94
2018-07-13T23:59:39.274Z,102236.89
